sensor_id;sensor_type;location;lat;lon;timestamp;P1;durP1;ratioP1;P2;durP2;ratioP2
37545;SDS011;23389;52.484;13.572;2023-04-06T00:01:46;11.32;;;6.07;;
37545;SDS011;23389;52.484;13.572;2023-04-06T00:04:11;10.68;;;6.00;;
37545;SDS011;23389;52.484;13.572;2023-04-06T00:06:37;10.45;;;6.10;;
37545;SDS011;23389;52.484;13.572;2023-04-06T00:09:02;12.35;;;5.88;;
37545;SDS011;23389;52.484;13.572;2023-04-06T00:11:27;9.33;;;5.60;;
37545;SDS011;23389;52.484;13.572;2023-04-06T00:13:52;9.95;;;5.97;;
37545;SDS011;23389;52.484;13.572;2023-04-06T00:16:17;10.40;;;5.70;;
37545;SDS011;23389;52.484;13.572;2023-04-06T00:18:43;10.07;;;6.07;;
37545;SDS011;23389;52.484;13.572;2023-04-06T00:21:10;10.50;;;5.88;;
37545;SDS011;23389;52.484;13.572;2023-04-06T00:23:36;9.82;;;5.30;;
37545;SDS011;23389;52.484;13.572;2023-04-06T00:26:01;9.57;;;6.17;;
37545;SDS011;23389;52.484;13.572;2023-04-06T00:28:26;11.80;;;5.50;;
37545;SDS011;23389;52.484;13.572;2023-04-06T00:30:52;10.03;;;5.47;;
37545;SDS011;23389;52.484;13.572;2023-04-06T00:33:20;9.20;;;4.22;;
37545;SDS011;23389;52.484;13.572;2023-04-06T00:35:45;9.10;;;6.03;;
37545;SDS011;23389;52.484;13.572;2023-04-06T00:38:11;9.38;;;5.43;;
37545;SDS011;23389;52.484;13.572;2023-04-06T00:40:36;8.88;;;5.90;;
37545;SDS011;23389;52.484;13.572;2023-04-06T00:43:01;10.18;;;5.93;;
37545;SDS011;23389;52.484;13.572;2023-04-06T00:45:26;12.68;;;6.32;;
37545;SDS011;23389;52.484;13.572;2023-04-06T00:47:51;9.80;;;6.23;;
37545;SDS011;23389;52.484;13.572;2023-04-06T00:50:17;9.70;;;5.97;;
37545;SDS011;23389;52.484;13.572;2023-04-06T00:52:42;10.37;;;5.83;;
37545;SDS011;23389;52.484;13.572;2023-04-06T00:55:07;8.50;;;5.63;;
37545;SDS011;23389;52.484;13.572;2023-04-06T00:57:32;12.45;;;6.40;;
37545;SDS011;23389;52.484;13.572;2023-04-06T00:59:58;10.32;;;6.28;;
37545;SDS011;23389;52.484;13.572;2023-04-06T01:02:23;8.82;;;5.80;;
37545;SDS011;23389;52.484;13.572;2023-04-06T01:04:49;10.95;;;6.65;;
37545;SDS011;23389;52.484;13.572;2023-04-06T01:07:14;8.77;;;5.85;;
37545;SDS011;23389;52.484;13.572;2023-04-06T01:09:39;10.25;;;6.30;;
37545;SDS011;23389;52.484;13.572;2023-04-06T01:12:06;11.45;;;7.18;;
37545;SDS011;23389;52.484;13.572;2023-04-06T01:14:31;10.15;;;6.28;;
37545;SDS011;23389;52.484;13.572;2023-04-06T01:16:57;14.13;;;7.40;;
37545;SDS011;23389;52.484;13.572;2023-04-06T01:19:23;9.90;;;6.22;;
37545;SDS011;23389;52.484;13.572;2023-04-06T01:21:48;10.95;;;6.18;;
37545;SDS011;23389;52.484;13.572;2023-04-06T01:24:14;11.32;;;6.07;;
37545;SDS011;23389;52.484;13.572;2023-04-06T01:26:40;10.48;;;6.18;;
37545;SDS011;23389;52.484;13.572;2023-04-06T01:29:05;9.48;;;6.20;;
37545;SDS011;23389;52.484;13.572;2023-04-06T01:31:30;12.93;;;6.75;;
37545;SDS011;23389;52.484;13.572;2023-04-06T01:33:55;14.70;;;7.97;;
37545;SDS011;23389;52.484;13.572;2023-04-06T01:36:21;11.82;;;6.85;;
37545;SDS011;23389;52.484;13.572;2023-04-06T01:38:46;14.75;;;7.68;;
37545;SDS011;23389;52.484;13.572;2023-04-06T01:41:11;13.90;;;8.63;;
37545;SDS011;23389;52.484;13.572;2023-04-06T01:43:36;14.80;;;7.70;;
37545;SDS011;23389;52.484;13.572;2023-04-06T01:46:01;13.63;;;8.05;;
37545;SDS011;23389;52.484;13.572;2023-04-06T01:48:27;14.75;;;8.15;;
37545;SDS011;23389;52.484;13.572;2023-04-06T01:50:52;13.40;;;7.97;;
37545;SDS011;23389;52.484;13.572;2023-04-06T01:53:17;14.48;;;8.30;;
37545;SDS011;23389;52.484;13.572;2023-04-06T01:55:42;12.73;;;7.57;;
37545;SDS011;23389;52.484;13.572;2023-04-06T01:58:07;13.82;;;7.80;;
37545;SDS011;23389;52.484;13.572;2023-04-06T02:00:32;13.77;;;8.43;;
37545;SDS011;23389;52.484;13.572;2023-04-06T02:02:58;13.48;;;7.88;;
37545;SDS011;23389;52.484;13.572;2023-04-06T02:05:23;15.63;;;8.93;;
37545;SDS011;23389;52.484;13.572;2023-04-06T02:07:48;13.90;;;8.23;;
37545;SDS011;23389;52.484;13.572;2023-04-06T02:10:14;12.73;;;7.75;;
37545;SDS011;23389;52.484;13.572;2023-04-06T02:12:39;14.20;;;8.50;;
37545;SDS011;23389;52.484;13.572;2023-04-06T02:15:04;12.80;;;7.40;;
37545;SDS011;23389;52.484;13.572;2023-04-06T02:17:30;11.60;;;7.65;;
37545;SDS011;23389;52.484;13.572;2023-04-06T02:19:55;14.60;;;8.70;;
37545;SDS011;23389;52.484;13.572;2023-04-06T02:22:20;11.57;;;7.55;;
37545;SDS011;23389;52.484;13.572;2023-04-06T02:24:45;14.05;;;7.43;;
37545;SDS011;23389;52.484;13.572;2023-04-06T02:27:11;11.30;;;7.07;;
37545;SDS011;23389;52.484;13.572;2023-04-06T02:29:36;11.57;;;6.83;;
37545;SDS011;23389;52.484;13.572;2023-04-06T02:32:01;12.98;;;7.25;;
37545;SDS011;23389;52.484;13.572;2023-04-06T02:34:26;10.80;;;6.60;;
37545;SDS011;23389;52.484;13.572;2023-04-06T02:36:51;10.23;;;6.50;;
37545;SDS011;23389;52.484;13.572;2023-04-06T02:39:17;9.65;;;6.72;;
37545;SDS011;23389;52.484;13.572;2023-04-06T02:41:42;11.30;;;6.80;;
37545;SDS011;23389;52.484;13.572;2023-04-06T02:44:07;11.25;;;6.75;;
37545;SDS011;23389;52.484;13.572;2023-04-06T02:46:33;11.55;;;6.68;;
37545;SDS011;23389;52.484;13.572;2023-04-06T02:48:58;11.57;;;6.32;;
37545;SDS011;23389;52.484;13.572;2023-04-06T02:51:25;9.75;;;6.05;;
37545;SDS011;23389;52.484;13.572;2023-04-06T02:53:50;11.32;;;6.18;;
37545;SDS011;23389;52.484;13.572;2023-04-06T02:56:16;10.93;;;7.25;;
37545;SDS011;23389;52.484;13.572;2023-04-06T02:58:41;11.83;;;6.90;;
37545;SDS011;23389;52.484;13.572;2023-04-06T03:01:06;10.88;;;6.20;;
37545;SDS011;23389;52.484;13.572;2023-04-06T03:03:31;10.30;;;5.78;;
37545;SDS011;23389;52.484;13.572;2023-04-06T03:05:56;12.03;;;6.17;;
37545;SDS011;23389;52.484;13.572;2023-04-06T03:08:23;11.73;;;6.95;;
37545;SDS011;23389;52.484;13.572;2023-04-06T03:10:48;9.93;;;5.88;;
37545;SDS011;23389;52.484;13.572;2023-04-06T03:13:13;11.68;;;6.53;;
37545;SDS011;23389;52.484;13.572;2023-04-06T03:15:39;10.60;;;5.72;;
37545;SDS011;23389;52.484;13.572;2023-04-06T03:18:04;10.38;;;6.68;;
37545;SDS011;23389;52.484;13.572;2023-04-06T03:20:29;9.87;;;6.27;;
37545;SDS011;23389;52.484;13.572;2023-04-06T03:22:54;10.80;;;6.63;;
37545;SDS011;23389;52.484;13.572;2023-04-06T03:25:20;12.35;;;6.38;;
37545;SDS011;23389;52.484;13.572;2023-04-06T03:27:45;10.90;;;6.20;;
37545;SDS011;23389;52.484;13.572;2023-04-06T03:30:10;10.20;;;6.70;;
37545;SDS011;23389;52.484;13.572;2023-04-06T03:32:36;11.98;;;6.32;;
37545;SDS011;23389;52.484;13.572;2023-04-06T03:35:01;10.70;;;6.25;;
37545;SDS011;23389;52.484;13.572;2023-04-06T03:37:26;10.30;;;6.40;;
37545;SDS011;23389;52.484;13.572;2023-04-06T03:39:51;10.27;;;6.40;;
37545;SDS011;23389;52.484;13.572;2023-04-06T03:42:17;10.90;;;5.95;;
37545;SDS011;23389;52.484;13.572;2023-04-06T03:44:42;10.63;;;6.43;;
37545;SDS011;23389;52.484;13.572;2023-04-06T03:47:07;11.68;;;6.65;;
37545;SDS011;23389;52.484;13.572;2023-04-06T03:49:32;11.43;;;6.53;;
37545;SDS011;23389;52.484;13.572;2023-04-06T03:51:57;11.40;;;6.60;;
37545;SDS011;23389;52.484;13.572;2023-04-06T03:54:22;10.40;;;6.82;;
37545;SDS011;23389;52.484;13.572;2023-04-06T03:56:47;10.85;;;6.10;;
37545;SDS011;23389;52.484;13.572;2023-04-06T03:59:12;10.73;;;6.13;;
37545;SDS011;23389;52.484;13.572;2023-04-06T04:01:38;10.05;;;6.30;;
37545;SDS011;23389;52.484;13.572;2023-04-06T04:04:04;11.35;;;7.15;;
37545;SDS011;23389;52.484;13.572;2023-04-06T04:06:29;11.50;;;6.00;;
37545;SDS011;23389;52.484;13.572;2023-04-06T04:08:55;10.32;;;6.80;;
37545;SDS011;23389;52.484;13.572;2023-04-06T04:11:20;10.75;;;6.85;;
37545;SDS011;23389;52.484;13.572;2023-04-06T04:13:45;10.85;;;6.47;;
37545;SDS011;23389;52.484;13.572;2023-04-06T04:16:10;11.50;;;6.95;;
37545;SDS011;23389;52.484;13.572;2023-04-06T04:18:35;11.85;;;7.35;;
37545;SDS011;23389;52.484;13.572;2023-04-06T04:21:01;10.60;;;7.53;;
37545;SDS011;23389;52.484;13.572;2023-04-06T04:23:26;13.95;;;7.60;;
37545;SDS011;23389;52.484;13.572;2023-04-06T04:25:51;13.50;;;7.40;;
37545;SDS011;23389;52.484;13.572;2023-04-06T04:28:16;12.52;;;7.80;;
37545;SDS011;23389;52.484;13.572;2023-04-06T04:30:42;10.68;;;7.38;;
37545;SDS011;23389;52.484;13.572;2023-04-06T04:33:07;9.23;;;6.73;;
37545;SDS011;23389;52.484;13.572;2023-04-06T04:35:32;12.45;;;7.47;;
37545;SDS011;23389;52.484;13.572;2023-04-06T04:37:57;11.18;;;7.03;;
37545;SDS011;23389;52.484;13.572;2023-04-06T04:40:22;12.38;;;7.45;;
37545;SDS011;23389;52.484;13.572;2023-04-06T04:42:48;11.00;;;7.10;;
37545;SDS011;23389;52.484;13.572;2023-04-06T04:45:13;16.20;;;8.10;;
37545;SDS011;23389;52.484;13.572;2023-04-06T04:47:38;13.18;;;7.78;;
37545;SDS011;23389;52.484;13.572;2023-04-06T04:50:04;13.30;;;7.90;;
37545;SDS011;23389;52.484;13.572;2023-04-06T04:52:29;12.10;;;7.80;;
37545;SDS011;23389;52.484;13.572;2023-04-06T04:54:54;11.23;;;7.57;;
37545;SDS011;23389;52.484;13.572;2023-04-06T04:57:19;11.90;;;7.43;;
37545;SDS011;23389;52.484;13.572;2023-04-06T04:59:45;10.75;;;7.47;;
37545;SDS011;23389;52.484;13.572;2023-04-06T05:02:10;13.18;;;7.95;;
37545;SDS011;23389;52.484;13.572;2023-04-06T05:04:35;14.68;;;8.13;;
37545;SDS011;23389;52.484;13.572;2023-04-06T05:07:04;12.40;;;7.88;;
37545;SDS011;23389;52.484;13.572;2023-04-06T05:09:29;13.30;;;7.45;;
37545;SDS011;23389;52.484;13.572;2023-04-06T05:11:56;12.35;;;7.22;;
37545;SDS011;23389;52.484;13.572;2023-04-06T05:14:21;14.45;;;8.18;;
37545;SDS011;23389;52.484;13.572;2023-04-06T05:16:46;12.35;;;7.40;;
37545;SDS011;23389;52.484;13.572;2023-04-06T05:19:11;12.23;;;8.00;;
37545;SDS011;23389;52.484;13.572;2023-04-06T05:21:36;12.23;;;8.40;;
37545;SDS011;23389;52.484;13.572;2023-04-06T05:24:01;13.00;;;8.70;;
37545;SDS011;23389;52.484;13.572;2023-04-06T05:26:27;15.02;;;8.50;;
37545;SDS011;23389;52.484;13.572;2023-04-06T05:28:52;13.25;;;8.25;;
37545;SDS011;23389;52.484;13.572;2023-04-06T05:31:17;12.53;;;8.47;;
37545;SDS011;23389;52.484;13.572;2023-04-06T05:33:43;14.80;;;9.03;;
37545;SDS011;23389;52.484;13.572;2023-04-06T05:36:08;13.45;;;8.80;;
37545;SDS011;23389;52.484;13.572;2023-04-06T05:38:33;14.88;;;9.25;;
37545;SDS011;23389;52.484;13.572;2023-04-06T05:40:58;14.93;;;9.73;;
37545;SDS011;23389;52.484;13.572;2023-04-06T05:43:23;12.43;;;8.98;;
37545;SDS011;23389;52.484;13.572;2023-04-06T05:45:48;17.03;;;9.80;;
37545;SDS011;23389;52.484;13.572;2023-04-06T05:48:13;14.48;;;8.55;;
37545;SDS011;23389;52.484;13.572;2023-04-06T05:50:38;17.13;;;9.30;;
37545;SDS011;23389;52.484;13.572;2023-04-06T05:53:04;15.27;;;9.13;;
37545;SDS011;23389;52.484;13.572;2023-04-06T05:55:29;14.73;;;9.35;;
37545;SDS011;23389;52.484;13.572;2023-04-06T05:57:54;15.40;;;9.57;;
37545;SDS011;23389;52.484;13.572;2023-04-06T06:00:19;14.87;;;8.60;;
37545;SDS011;23389;52.484;13.572;2023-04-06T06:02:44;15.40;;;9.23;;
37545;SDS011;23389;52.484;13.572;2023-04-06T06:05:10;11.40;;;8.23;;
37545;SDS011;23389;52.484;13.572;2023-04-06T06:07:35;16.35;;;9.35;;
37545;SDS011;23389;52.484;13.572;2023-04-06T06:10:00;13.30;;;8.25;;
37545;SDS011;23389;52.484;13.572;2023-04-06T06:12:25;14.13;;;8.20;;
37545;SDS011;23389;52.484;13.572;2023-04-06T06:14:50;13.25;;;7.53;;
37545;SDS011;23389;52.484;13.572;2023-04-06T06:17:15;11.63;;;8.02;;
37545;SDS011;23389;52.484;13.572;2023-04-06T06:19:41;11.23;;;7.43;;
37545;SDS011;23389;52.484;13.572;2023-04-06T06:22:06;12.88;;;7.78;;
37545;SDS011;23389;52.484;13.572;2023-04-06T06:24:31;16.73;;;7.88;;
37545;SDS011;23389;52.484;13.572;2023-04-06T06:26:56;10.23;;;6.47;;
37545;SDS011;23389;52.484;13.572;2023-04-06T06:29:21;14.20;;;7.60;;
37545;SDS011;23389;52.484;13.572;2023-04-06T06:31:46;12.32;;;7.07;;
37545;SDS011;23389;52.484;13.572;2023-04-06T06:34:12;11.63;;;6.80;;
37545;SDS011;23389;52.484;13.572;2023-04-06T06:36:37;12.40;;;6.70;;
37545;SDS011;23389;52.484;13.572;2023-04-06T06:39:03;11.93;;;6.25;;
37545;SDS011;23389;52.484;13.572;2023-04-06T06:41:28;12.00;;;7.03;;
37545;SDS011;23389;52.484;13.572;2023-04-06T06:43:54;11.52;;;6.22;;
37545;SDS011;23389;52.484;13.572;2023-04-06T06:46:19;12.93;;;6.50;;
37545;SDS011;23389;52.484;13.572;2023-04-06T06:48:45;12.18;;;6.13;;
37545;SDS011;23389;52.484;13.572;2023-04-06T06:51:10;10.60;;;5.75;;
37545;SDS011;23389;52.484;13.572;2023-04-06T06:53:36;8.05;;;4.95;;
37545;SDS011;23389;52.484;13.572;2023-04-06T06:56:01;12.60;;;5.88;;
37545;SDS011;23389;52.484;13.572;2023-04-06T06:58:26;9.25;;;4.78;;
37545;SDS011;23389;52.484;13.572;2023-04-06T07:00:55;8.00;;;4.67;;
37545;SDS011;23389;52.484;13.572;2023-04-06T07:03:20;8.77;;;4.30;;
37545;SDS011;23389;52.484;13.572;2023-04-06T07:05:46;10.38;;;5.10;;
37545;SDS011;23389;52.484;13.572;2023-04-06T07:08:17;11.90;;;4.70;;
37545;SDS011;23389;52.484;13.572;2023-04-06T07:10:43;11.53;;;4.60;;
37545;SDS011;23389;52.484;13.572;2023-04-06T07:13:08;9.18;;;4.88;;
37545;SDS011;23389;52.484;13.572;2023-04-06T07:15:33;7.38;;;4.03;;
37545;SDS011;23389;52.484;13.572;2023-04-06T07:17:58;8.20;;;4.78;;
37545;SDS011;23389;52.484;13.572;2023-04-06T07:20:24;8.20;;;4.00;;
37545;SDS011;23389;52.484;13.572;2023-04-06T07:22:49;7.87;;;3.90;;
37545;SDS011;23389;52.484;13.572;2023-04-06T07:25:14;10.00;;;4.38;;
37545;SDS011;23389;52.484;13.572;2023-04-06T07:27:39;13.50;;;5.85;;
37545;SDS011;23389;52.484;13.572;2023-04-06T07:30:05;8.27;;;4.25;;
37545;SDS011;23389;52.484;13.572;2023-04-06T07:32:30;6.72;;;4.15;;
37545;SDS011;23389;52.484;13.572;2023-04-06T07:34:56;10.63;;;5.05;;
37545;SDS011;23389;52.484;13.572;2023-04-06T07:37:21;10.30;;;4.85;;
37545;SDS011;23389;52.484;13.572;2023-04-06T07:39:46;9.95;;;4.45;;
37545;SDS011;23389;52.484;13.572;2023-04-06T07:42:11;8.30;;;4.05;;
37545;SDS011;23389;52.484;13.572;2023-04-06T07:44:36;9.43;;;4.40;;
37545;SDS011;23389;52.484;13.572;2023-04-06T07:47:02;7.80;;;4.10;;
37545;SDS011;23389;52.484;13.572;2023-04-06T07:49:27;7.82;;;4.05;;
37545;SDS011;23389;52.484;13.572;2023-04-06T07:51:52;7.45;;;4.20;;
37545;SDS011;23389;52.484;13.572;2023-04-06T07:54:17;8.05;;;4.25;;
37545;SDS011;23389;52.484;13.572;2023-04-06T07:56:42;8.30;;;4.13;;
37545;SDS011;23389;52.484;13.572;2023-04-06T07:59:07;8.60;;;3.97;;
37545;SDS011;23389;52.484;13.572;2023-04-06T08:01:32;7.25;;;3.67;;
37545;SDS011;23389;52.484;13.572;2023-04-06T08:03:58;6.63;;;3.40;;
37545;SDS011;23389;52.484;13.572;2023-04-06T08:06:23;6.47;;;3.50;;
37545;SDS011;23389;52.484;13.572;2023-04-06T08:08:49;6.30;;;2.95;;
37545;SDS011;23389;52.484;13.572;2023-04-06T08:11:14;7.20;;;3.33;;
37545;SDS011;23389;52.484;13.572;2023-04-06T08:13:39;9.17;;;3.10;;
37545;SDS011;23389;52.484;13.572;2023-04-06T08:16:04;7.13;;;3.50;;
37545;SDS011;23389;52.484;13.572;2023-04-06T08:18:30;5.55;;;2.80;;
37545;SDS011;23389;52.484;13.572;2023-04-06T08:20:55;7.15;;;3.00;;
37545;SDS011;23389;52.484;13.572;2023-04-06T08:23:20;7.18;;;2.95;;
37545;SDS011;23389;52.484;13.572;2023-04-06T08:25:45;8.80;;;3.30;;
37545;SDS011;23389;52.484;13.572;2023-04-06T08:28:10;6.47;;;2.70;;
37545;SDS011;23389;52.484;13.572;2023-04-06T08:30:36;5.27;;;3.17;;
37545;SDS011;23389;52.484;13.572;2023-04-06T08:33:02;7.72;;;2.72;;
37545;SDS011;23389;52.484;13.572;2023-04-06T08:35:27;8.13;;;2.90;;
37545;SDS011;23389;52.484;13.572;2023-04-06T08:37:52;8.32;;;3.25;;
37545;SDS011;23389;52.484;13.572;2023-04-06T08:40:17;8.48;;;2.45;;
37545;SDS011;23389;52.484;13.572;2023-04-06T08:42:49;6.53;;;2.85;;
37545;SDS011;23389;52.484;13.572;2023-04-06T08:45:15;5.50;;;2.67;;
37545;SDS011;23389;52.484;13.572;2023-04-06T08:47:41;7.05;;;2.90;;
37545;SDS011;23389;52.484;13.572;2023-04-06T08:50:06;6.67;;;2.80;;
37545;SDS011;23389;52.484;13.572;2023-04-06T08:52:32;7.53;;;2.92;;
37545;SDS011;23389;52.484;13.572;2023-04-06T08:54:58;7.30;;;2.65;;
37545;SDS011;23389;52.484;13.572;2023-04-06T08:57:24;5.60;;;2.50;;
37545;SDS011;23389;52.484;13.572;2023-04-06T08:59:50;8.63;;;2.88;;
37545;SDS011;23389;52.484;13.572;2023-04-06T09:02:18;6.85;;;2.65;;
37545;SDS011;23389;52.484;13.572;2023-04-06T09:04:43;10.02;;;3.00;;
37545;SDS011;23389;52.484;13.572;2023-04-06T09:07:09;7.05;;;2.55;;
37545;SDS011;23389;52.484;13.572;2023-04-06T09:09:34;5.35;;;2.22;;
37545;SDS011;23389;52.484;13.572;2023-04-06T09:11:59;5.40;;;2.33;;
37545;SDS011;23389;52.484;13.572;2023-04-06T09:14:34;5.88;;;2.25;;
37545;SDS011;23389;52.484;13.572;2023-04-06T09:17:00;7.22;;;2.70;;
37545;SDS011;23389;52.484;13.572;2023-04-06T09:19:25;6.68;;;2.72;;
37545;SDS011;23389;52.484;13.572;2023-04-06T09:22:00;6.32;;;2.50;;
37545;SDS011;23389;52.484;13.572;2023-04-06T09:24:25;6.35;;;2.38;;
37545;SDS011;23389;52.484;13.572;2023-04-06T09:26:51;5.43;;;2.60;;
37545;SDS011;23389;52.484;13.572;2023-04-06T09:29:22;5.80;;;2.45;;
37545;SDS011;23389;52.484;13.572;2023-04-06T09:31:48;6.28;;;2.25;;
37545;SDS011;23389;52.484;13.572;2023-04-06T09:34:20;6.15;;;2.45;;
37545;SDS011;23389;52.484;13.572;2023-04-06T09:36:45;6.10;;;2.22;;
37545;SDS011;23389;52.484;13.572;2023-04-06T09:39:10;4.90;;;1.90;;
37545;SDS011;23389;52.484;13.572;2023-04-06T09:41:37;6.75;;;2.30;;
37545;SDS011;23389;52.484;13.572;2023-04-06T09:44:04;5.40;;;1.80;;
37545;SDS011;23389;52.484;13.572;2023-04-06T09:46:30;6.45;;;2.35;;
37545;SDS011;23389;52.484;13.572;2023-04-06T09:48:56;5.50;;;2.22;;
37545;SDS011;23389;52.484;13.572;2023-04-06T09:51:21;6.18;;;1.83;;
37545;SDS011;23389;52.484;13.572;2023-04-06T09:56:13;7.63;;;2.33;;
37545;SDS011;23389;52.484;13.572;2023-04-06T09:58:41;3.20;;;1.70;;
37545;SDS011;23389;52.484;13.572;2023-04-06T10:01:12;5.75;;;1.83;;
37545;SDS011;23389;52.484;13.572;2023-04-06T10:03:52;5.20;;;2.22;;
37545;SDS011;23389;52.484;13.572;2023-04-06T10:06:20;5.28;;;2.15;;
37545;SDS011;23389;52.484;13.572;2023-04-06T10:08:46;5.53;;;2.33;;
37545;SDS011;23389;52.484;13.572;2023-04-06T10:11:12;5.57;;;2.08;;
37545;SDS011;23389;52.484;13.572;2023-04-06T10:13:37;4.23;;;1.70;;
37545;SDS011;23389;52.484;13.572;2023-04-06T10:16:03;5.25;;;1.98;;
37545;SDS011;23389;52.484;13.572;2023-04-06T10:18:28;5.50;;;1.92;;
37545;SDS011;23389;52.484;13.572;2023-04-06T10:21:06;4.10;;;1.65;;
37545;SDS011;23389;52.484;13.572;2023-04-06T10:23:35;5.82;;;2.40;;
37545;SDS011;23389;52.484;13.572;2023-04-06T10:26:01;4.47;;;1.63;;
37545;SDS011;23389;52.484;13.572;2023-04-06T10:28:35;12.00;;;3.63;;
37545;SDS011;23389;52.484;13.572;2023-04-06T10:31:01;4.60;;;1.70;;
37545;SDS011;23389;52.484;13.572;2023-04-06T10:33:27;5.05;;;2.45;;
37545;SDS011;23389;52.484;13.572;2023-04-06T10:35:52;7.95;;;2.83;;
37545;SDS011;23389;52.484;13.572;2023-04-06T10:38:18;4.78;;;1.80;;
37545;SDS011;23389;52.484;13.572;2023-04-06T10:40:46;5.35;;;1.77;;
37545;SDS011;23389;52.484;13.572;2023-04-06T10:43:13;4.95;;;2.03;;
37545;SDS011;23389;52.484;13.572;2023-04-06T10:45:39;5.10;;;1.63;;
37545;SDS011;23389;52.484;13.572;2023-04-06T10:50:39;4.95;;;2.05;;
37545;SDS011;23389;52.484;13.572;2023-04-06T10:53:05;6.45;;;2.17;;
37545;SDS011;23389;52.484;13.572;2023-04-06T10:55:31;4.93;;;2.10;;
37545;SDS011;23389;52.484;13.572;2023-04-06T10:57:56;5.40;;;2.17;;
37545;SDS011;23389;52.484;13.572;2023-04-06T11:00:21;5.23;;;1.77;;
37545;SDS011;23389;52.484;13.572;2023-04-06T11:02:46;4.10;;;1.80;;
37545;SDS011;23389;52.484;13.572;2023-04-06T11:05:12;5.40;;;1.90;;
37545;SDS011;23389;52.484;13.572;2023-04-06T11:07:41;7.72;;;2.10;;
37545;SDS011;23389;52.484;13.572;2023-04-06T11:10:07;3.75;;;1.60;;
37545;SDS011;23389;52.484;13.572;2023-04-06T11:12:32;5.45;;;2.00;;
37545;SDS011;23389;52.484;13.572;2023-04-06T11:15:01;6.65;;;2.15;;
37545;SDS011;23389;52.484;13.572;2023-04-06T11:17:31;6.15;;;2.00;;
37545;SDS011;23389;52.484;13.572;2023-04-06T11:19:57;3.75;;;1.50;;
37545;SDS011;23389;52.484;13.572;2023-04-06T11:22:22;4.05;;;1.77;;
37545;SDS011;23389;52.484;13.572;2023-04-06T11:24:47;4.10;;;2.00;;
37545;SDS011;23389;52.484;13.572;2023-04-06T11:27:13;4.85;;;2.00;;
37545;SDS011;23389;52.484;13.572;2023-04-06T11:29:41;4.53;;;1.70;;
37545;SDS011;23389;52.484;13.572;2023-04-06T11:32:06;3.97;;;1.83;;
37545;SDS011;23389;52.484;13.572;2023-04-06T11:34:33;4.15;;;2.05;;
37545;SDS011;23389;52.484;13.572;2023-04-06T11:37:01;4.28;;;1.95;;
37545;SDS011;23389;52.484;13.572;2023-04-06T11:39:27;4.65;;;1.83;;
37545;SDS011;23389;52.484;13.572;2023-04-06T11:41:54;4.07;;;1.65;;
37545;SDS011;23389;52.484;13.572;2023-04-06T11:44:32;4.55;;;2.05;;
37545;SDS011;23389;52.484;13.572;2023-04-06T11:46:58;5.30;;;2.00;;
37545;SDS011;23389;52.484;13.572;2023-04-06T11:49:30;4.78;;;1.70;;
37545;SDS011;23389;52.484;13.572;2023-04-06T11:51:56;4.95;;;1.80;;
37545;SDS011;23389;52.484;13.572;2023-04-06T11:54:31;4.38;;;1.70;;
37545;SDS011;23389;52.484;13.572;2023-04-06T11:56:56;6.07;;;2.33;;
37545;SDS011;23389;52.484;13.572;2023-04-06T11:59:22;3.83;;;1.90;;
37545;SDS011;23389;52.484;13.572;2023-04-06T12:01:47;6.22;;;2.30;;
37545;SDS011;23389;52.484;13.572;2023-04-06T12:04:12;4.28;;;1.63;;
37545;SDS011;23389;52.484;13.572;2023-04-06T12:06:38;4.40;;;1.95;;
37545;SDS011;23389;52.484;13.572;2023-04-06T12:09:03;4.35;;;1.80;;
37545;SDS011;23389;52.484;13.572;2023-04-06T12:11:28;4.60;;;2.20;;
37545;SDS011;23389;52.484;13.572;2023-04-06T12:13:53;6.15;;;2.28;;
37545;SDS011;23389;52.484;13.572;2023-04-06T12:16:18;4.45;;;2.08;;
37545;SDS011;23389;52.484;13.572;2023-04-06T12:18:44;4.70;;;1.98;;
37545;SDS011;23389;52.484;13.572;2023-04-06T12:21:09;3.35;;;1.63;;
37545;SDS011;23389;52.484;13.572;2023-04-06T12:23:34;4.50;;;1.70;;
37545;SDS011;23389;52.484;13.572;2023-04-06T12:26:00;4.60;;;1.80;;
37545;SDS011;23389;52.484;13.572;2023-04-06T12:28:25;4.68;;;1.70;;
37545;SDS011;23389;52.484;13.572;2023-04-06T12:30:51;5.20;;;1.95;;
37545;SDS011;23389;52.484;13.572;2023-04-06T12:33:17;4.90;;;1.90;;
37545;SDS011;23389;52.484;13.572;2023-04-06T12:35:42;3.75;;;1.75;;
37545;SDS011;23389;52.484;13.572;2023-04-06T12:38:07;4.15;;;1.90;;
37545;SDS011;23389;52.484;13.572;2023-04-06T12:40:35;5.82;;;2.28;;
37545;SDS011;23389;52.484;13.572;2023-04-06T12:43:01;4.97;;;1.90;;
37545;SDS011;23389;52.484;13.572;2023-04-06T12:45:26;5.18;;;1.75;;
37545;SDS011;23389;52.484;13.572;2023-04-06T12:47:51;3.90;;;1.70;;
37545;SDS011;23389;52.484;13.572;2023-04-06T12:50:16;3.72;;;1.80;;
37545;SDS011;23389;52.484;13.572;2023-04-06T12:52:41;3.35;;;1.77;;
37545;SDS011;23389;52.484;13.572;2023-04-06T12:55:06;3.92;;;1.67;;
37545;SDS011;23389;52.484;13.572;2023-04-06T12:57:32;5.07;;;1.60;;
37545;SDS011;23389;52.484;13.572;2023-04-06T12:59:57;3.90;;;1.70;;
37545;SDS011;23389;52.484;13.572;2023-04-06T13:02:22;3.80;;;1.70;;
37545;SDS011;23389;52.484;13.572;2023-04-06T13:04:48;4.13;;;1.75;;
37545;SDS011;23389;52.484;13.572;2023-04-06T13:07:13;4.47;;;1.83;;
37545;SDS011;23389;52.484;13.572;2023-04-06T13:09:39;4.85;;;1.85;;
37545;SDS011;23389;52.484;13.572;2023-04-06T13:12:04;5.60;;;1.70;;
37545;SDS011;23389;52.484;13.572;2023-04-06T13:14:30;4.20;;;1.85;;
37545;SDS011;23389;52.484;13.572;2023-04-06T13:16:56;5.72;;;1.80;;
37545;SDS011;23389;52.484;13.572;2023-04-06T13:19:21;4.47;;;1.95;;
37545;SDS011;23389;52.484;13.572;2023-04-06T13:21:46;3.93;;;1.70;;
37545;SDS011;23389;52.484;13.572;2023-04-06T13:24:11;4.00;;;1.47;;
37545;SDS011;23389;52.484;13.572;2023-04-06T13:26:36;3.75;;;1.42;;
37545;SDS011;23389;52.484;13.572;2023-04-06T13:29:01;5.30;;;1.98;;
37545;SDS011;23389;52.484;13.572;2023-04-06T13:31:27;4.28;;;1.85;;
37545;SDS011;23389;52.484;13.572;2023-04-06T13:33:52;3.83;;;1.80;;
37545;SDS011;23389;52.484;13.572;2023-04-06T13:36:17;3.87;;;1.70;;
37545;SDS011;23389;52.484;13.572;2023-04-06T13:38:43;8.30;;;4.70;;
37545;SDS011;23389;52.484;13.572;2023-04-06T13:41:08;9.60;;;6.60;;
37545;SDS011;23389;52.484;13.572;2023-04-06T13:43:33;6.38;;;3.33;;
37545;SDS011;23389;52.484;13.572;2023-04-06T13:45:58;5.33;;;2.23;;
37545;SDS011;23389;52.484;13.572;2023-04-06T13:48:25;5.50;;;2.55;;
37545;SDS011;23389;52.484;13.572;2023-04-06T13:50:51;4.22;;;1.88;;
37545;SDS011;23389;52.484;13.572;2023-04-06T13:53:16;9.17;;;7.00;;
37545;SDS011;23389;52.484;13.572;2023-04-06T13:55:41;10.35;;;7.57;;
37545;SDS011;23389;52.484;13.572;2023-04-06T13:58:06;4.93;;;2.60;;
37545;SDS011;23389;52.484;13.572;2023-04-06T14:00:31;7.93;;;4.30;;
37545;SDS011;23389;52.484;13.572;2023-04-06T14:02:56;5.73;;;2.30;;
37545;SDS011;23389;52.484;13.572;2023-04-06T14:05:21;6.27;;;3.37;;
37545;SDS011;23389;52.484;13.572;2023-04-06T14:07:48;5.22;;;2.92;;
37545;SDS011;23389;52.484;13.572;2023-04-06T14:10:13;5.38;;;2.35;;
37545;SDS011;23389;52.484;13.572;2023-04-06T14:12:42;5.45;;;2.38;;
37545;SDS011;23389;52.484;13.572;2023-04-06T14:15:09;3.92;;;1.80;;
37545;SDS011;23389;52.484;13.572;2023-04-06T14:17:34;4.07;;;1.60;;
37545;SDS011;23389;52.484;13.572;2023-04-06T14:19:59;8.77;;;5.00;;
37545;SDS011;23389;52.484;13.572;2023-04-06T14:22:24;4.65;;;2.03;;
37545;SDS011;23389;52.484;13.572;2023-04-06T14:24:50;5.80;;;2.20;;